Austin, Indiana
Current Conditions -  °F | °C
As of 7:17 PM on Thursday 27 Nov 2014 (Local Time) from KLOU Reporting Station
Overcast Overcast  
Wind Chill: -6°   Ceiling: 3500
Heat Index: -2°   Visibility: 9mi
Dew Point: -6°   Wind: 9mph
Humidity: 72%   Direction: 260°W
Pressure: 30.44"   Gusts: NA
Location:  38.76°N, 85.81°W
Report Text: KLOU 280017Z 26008KT 9SM FEW027 OVC035 M02/M06 A3044 RMK AO2 T10171061
Loading
Personal Weather Stations






























Interactive Weather Map New forecast layout! Learn more

10-Day Weather Forecast

Advertisements
Track Severe Weather on mobile